Time;durP1;ratioP1;P1;durP2;ratioP2;P2;SDS_P1;SDS_P2;PMS_P1;PMS_P2;Temp;Humidity;BMP_temperature;BMP_pressure;BME280_temperature;BME280_humidity;BME280_pressure;Samples;Min_cycle;Max_cycle;Signal;HPM_P1;HPM_P2
2023/06/17 05:21:32;;;;;;;8.27;7.20;;;14.60;81.60;;;;;;5105012;27;20578;-72
2023/06/17 05:23:59;;;;;;;8.27;6.70;;;15.00;82.70;;;;;;5057774;28;20959;-72
2023/06/17 05:26:27;;;;;;;10.00;6.90;;;15.10;83.10;;;;;;5068049;28;20461;-71
2023/06/17 05:28:54;;;;;;;10.50;6.57;;;15.20;82.40;;;;;;5070571;28;20438;-73
2023/06/17 05:31:21;;;;;;;7.73;6.57;;;15.40;82.30;;;;;;5073088;28;20465;-72
2023/06/17 05:33:48;;;;;;;6.90;6.20;;;15.50;82.20;;;;;;5081196;28;20460;-70
2023/06/17 05:36:16;;;;;;;8.53;5.93;;;15.60;82.60;;;;;;5070949;28;137608;-71
2023/06/17 05:38:44;;;;;;;8.50;6.60;;;15.70;82.50;;;;;;5093592;28;20986;-71
2023/06/17 05:41:12;;;;;;;8.20;6.60;;;15.80;82.30;;;;;;5077367;28;20487;-70
2023/06/17 05:43:41;;;;;;;7.90;6.47;;;15.90;82.00;;;;;;5104155;28;20512;-70
2023/06/17 05:46:08;;;;;;;7.90;6.80;;;16.00;81.60;;;;;;5094378;28;20438;-74
2023/06/17 05:48:35;;;;;;;7.73;6.07;;;16.10;81.10;;;;;;5099869;28;20452;-70
2023/06/17 05:51:03;;;;;;;6.90;6.20;;;16.20;81.10;;;;;;5094337;28;20953;-73
2023/06/17 05:53:32;;;;;;;7.90;6.17;;;16.30;79.90;;;;;;5104252;28;21163;-71
2023/06/17 05:56:03;;;;;;;7.57;6.50;;;16.40;79.00;;;;;;5103241;28;20436;-71
2023/06/17 05:58:31;;;;;;;8.63;6.10;;;16.50;77.00;;;;;;5093651;28;20215;-72
2023/06/17 06:00:58;;;;;;;7.70;6.10;;;16.60;76.40;;;;;;5104567;28;20551;-72
2023/06/17 06:03:29;;;;;;;9.80;6.80;;;16.70;74.70;;;;;;5109742;27;20954;-74
2023/06/17 06:05:56;;;;;;;8.23;6.87;;;16.70;73.60;;;;;;5100491;28;20447;-71
2023/06/17 06:08:23;;;;;;;6.27;5.33;;;16.90;73.90;;;;;;5109628;27;20555;-72
2023/06/17 06:10:51;;;;;;;7.00;6.30;;;16.90;73.00;;;;;;5104470;28;21020;-71
2023/06/17 06:13:20;;;;;;;7.63;5.70;;;17.00;74.00;;;;;;5101754;27;20827;-74
2023/06/17 06:15:47;;;;;;;8.37;6.97;;;17.20;73.90;;;;;;5104230;28;20466;-70
2023/06/17 06:18:15;;;;;;;9.30;6.50;;;17.30;74.20;;;;;;5109693;27;20806;-71
2023/06/17 06:20:43;;;;;;;7.10;6.00;;;17.40;74.50;;;;;;5097255;28;20856;-70
2023/06/17 06:23:10;;;;;;;6.80;6.03;;;17.60;74.70;;;;;;5092856;28;20456;-71
2023/06/17 06:25:37;;;;;;;8.73;5.90;;;17.70;74.40;;;;;;5102955;28;20448;-73
2023/06/17 06:28:05;;;;;;;8.50;7.00;;;17.80;73.50;;;;;;5092220;28;20516;-72
2023/06/17 06:30:34;;;;;;;8.77;5.70;;;17.90;72.70;;;;;;5102968;28;20454;-72
2023/06/17 06:33:02;;;;;;;8.50;6.40;;;18.00;70.60;;;;;;5078364;28;20508;-73
2023/06/17 06:35:29;;;;;;;8.87;6.50;;;18.10;69.70;;;;;;5088690;28;20523;-71
2023/06/17 06:37:56;;;;;;;8.80;6.53;;;18.20;68.90;;;;;;5083618;27;20519;-72
2023/06/17 06:40:24;;;;;;;8.93;6.43;;;18.30;68.00;;;;;;5091442;28;20488;-75
2023/06/17 06:42:51;;;;;;;7.27;6.47;;;18.40;64.20;;;;;;5091546;28;20462;-70
2023/06/17 06:45:18;;;;;;;6.03;5.23;;;18.50;63.70;;;;;;5092930;28;20442;-72
2023/06/17 06:47:47;;;;;;;6.87;5.13;;;18.50;63.30;;;;;;5091040;28;21153;-72
2023/06/17 06:50:15;;;;;;;7.20;5.73;;;18.70;63.20;;;;;;5085312;28;20912;-71
2023/06/17 06:52:41;;;;;;;9.17;6.13;;;18.80;63.70;;;;;;5078469;28;20468;-70
2023/06/17 06:55:09;;;;;;;10.17;7.50;;;18.90;63.80;;;;;;5090093;28;20482;-70
2023/06/17 06:57:36;;;;;;;10.47;6.57;;;19.00;63.60;;;;;;5085326;27;20548;-70
2023/06/17 07:00:08;;;;;;;6.90;5.50;;;19.10;63.00;;;;;;5082589;28;20568;-72
2023/06/17 07:02:35;;;;;;;6.80;5.47;;;19.20;62.50;;;;;;5085536;28;20471;-69
2023/06/17 07:05:05;;;;;;;8.00;6.27;;;19.30;62.60;;;;;;5089043;28;20487;-72
2023/06/17 07:07:32;;;;;;;7.40;5.90;;;19.50;62.20;;;;;;5081028;28;20489;-72
2023/06/17 07:10:01;;;;;;;6.90;5.73;;;19.50;61.20;;;;;;5088846;28;20445;-70
2023/06/17 07:12:43;;;;;;;7.53;5.20;;;19.70;61.70;;;;;;5086178;28;20608;-72
2023/06/17 07:15:11;;;;;;;6.77;5.60;;;19.80;61.80;;;;;;5092788;28;20437;-72
2023/06/17 07:17:40;;;;;;;8.50;5.83;;;19.90;60.30;;;;;;5076650;28;20465;-72
2023/06/17 07:20:12;;;;;;;6.23;5.27;;;20.00;59.30;;;;;;5081421;28;20481;-69
2023/06/17 07:22:39;;;;;;;8.37;5.30;;;20.10;59.30;;;;;;5077240;28;20567;-69
2023/06/17 07:25:08;;;;;;;7.77;5.80;;;20.10;58.10;;;;;;5088465;28;20967;-70
2023/06/17 07:27:35;;;;;;;9.47;5.97;;;20.20;57.40;;;;;;5082831;28;20544;-70
2023/06/17 07:30:02;;;;;;;11.40;6.73;;;20.30;57.20;;;;;;5094774;28;20853;-71
2023/06/17 07:32:29;;;;;;;10.83;6.53;;;20.40;58.10;;;;;;5078538;28;20804;-70
2023/06/17 07:34:56;;;;;;;8.70;5.83;;;20.50;58.20;;;;;;5093014;28;20442;-71
2023/06/17 07:37:24;;;;;;;7.33;4.83;;;20.60;58.80;;;;;;5040956;28;20453;-72
2023/06/17 07:39:51;;;;;;;7.37;5.27;;;20.80;58.70;;;;;;5087510;28;20543;-69
2023/06/17 07:42:18;;;;;;;9.53;5.73;;;21.00;58.40;;;;;;5081499;28;20493;-69
2023/06/17 07:44:45;;;;;;;5.93;5.30;;;21.10;58.90;;;;;;5087048;28;20987;-74
2023/06/17 07:47:12;;;;;;;7.57;4.87;;;21.30;58.90;;;;;;5078581;28;20720;-69
2023/06/17 07:49:39;;;;;;;13.93;5.40;;;21.40;58.10;;;;;;5086278;28;20496;-73
2023/06/17 07:52:07;;;;;;;6.60;5.43;;;21.60;58.70;;;;;;5081161;28;20453;-69
2023/06/17 07:54:36;;;;;;;5.67;4.63;;;21.80;58.40;;;;;;5097096;28;20499;-71
2023/06/17 07:57:04;;;;;;;9.97;5.30;;;22.00;58.30;;;;;;5073467;28;20447;-75
2023/06/17 07:59:31;;;;;;;6.27;5.10;;;22.10;57.20;;;;;;5092440;28;20447;-70
2023/06/17 08:01:58;;;;;;;5.43;4.30;;;22.20;56.50;;;;;;5087316;28;20489;-73
2023/06/17 08:04:26;;;;;;;5.70;4.60;;;22.40;53.10;;;;;;5075238;28;20531;-70
2023/06/17 08:06:55;;;;;;;8.80;4.07;;;22.50;52.80;;;;;;5085648;28;20544;-71
2023/06/17 08:09:22;;;;;;;5.00;4.10;;;22.60;53.70;;;;;;5086582;28;20944;-71
2023/06/17 08:11:51;;;;;;;6.40;4.50;;;22.70;53.90;;;;;;5080352;28;20446;-71
2023/06/17 08:14:18;;;;;;;8.83;4.77;;;22.80;53.20;;;;;;5076492;28;20465;-70
2023/06/17 08:16:50;;;;;;;6.57;4.70;;;22.90;53.00;;;;;;5087167;28;20493;-71
2023/06/17 08:19:19;;;;;;;5.50;4.93;;;23.00;52.40;;;;;;5073176;28;20496;-73
2023/06/17 08:21:49;;;;;;;5.87;4.13;;;23.10;51.20;;;;;;5086772;28;20494;-70
2023/06/17 08:24:20;;;;;;;5.57;4.17;;;23.20;51.90;;;;;;5085606;28;20467;-70
2023/06/17 08:26:49;;;;;;;9.70;4.83;;;23.30;51.70;;;;;;5085951;28;20524;-69
2023/06/17 08:29:19;;;;;;;7.50;5.07;;;23.40;50.50;;;;;;5091991;28;20461;-70
2023/06/17 08:31:47;;;;;;;6.40;4.67;;;23.50;50.80;;;;;;5087050;28;20511;-70
2023/06/17 08:34:15;;;;;;;6.83;4.90;;;23.70;50.80;;;;;;5080104;28;20541;-69
2023/06/17 08:36:45;;;;;;;8.43;5.53;;;23.80;50.60;;;;;;5086300;28;20448;-71
2023/06/17 08:39:12;;;;;;;7.20;4.67;;;24.00;50.40;;;;;;5089445;28;21254;-72
2023/06/17 08:41:41;;;;;;;7.70;5.37;;;24.10;50.50;;;;;;5085478;28;20552;-74
2023/06/17 08:44:09;;;;;;;8.10;5.57;;;24.20;50.20;;;;;;5075186;28;20567;-70
2023/06/17 08:46:39;;;;;;;7.10;5.20;;;24.30;48.80;;;;;;5086455;28;20436;-69
2023/06/17 08:49:08;;;;;;;7.50;5.20;;;24.40;48.20;;;;;;5076303;28;20517;-70
2023/06/17 08:51:37;;;;;;;8.43;5.33;;;24.60;44.80;;;;;;5085250;28;20451;-71
2023/06/17 08:54:05;;;;;;;6.10;5.10;;;24.50;42.20;;;;;;5076030;28;20463;-71
2023/06/17 08:56:33;;;;;;;7.87;6.27;;;24.40;41.00;;;;;;5086396;28;20505;-70
2023/06/17 08:59:00;;;;;;;6.37;5.30;;;24.40;42.00;;;;;;5075565;28;20472;-72
2023/06/17 09:01:27;;;;;;;6.23;5.00;;;24.30;41.80;;;;;;5082526;28;20537;-72
2023/06/17 09:03:55;;;;;;;6.50;4.80;;;24.40;42.30;;;;;;5076914;28;20846;-71
2023/06/17 09:06:25;;;;;;;6.53;5.13;;;24.40;42.70;;;;;;5080895;28;20951;-74
2023/06/17 09:08:53;;;;;;;6.40;4.90;;;24.30;42.10;;;;;;5085720;28;21163;-72
2023/06/17 09:11:23;;;;;;;6.73;5.70;;;24.30;42.70;;;;;;5087254;28;20505;-72
2023/06/17 09:13:51;;;;;;;8.10;5.93;;;24.30;43.20;;;;;;5070174;28;20554;-73
2023/06/17 09:16:19;;;;;;;7.10;5.00;;;24.30;43.50;;;;;;5082276;28;20535;-71
2023/06/17 09:18:46;;;;;;;6.27;4.47;;;24.30;44.80;;;;;;5084130;28;20459;-72
2023/06/17 09:21:18;;;;;;;6.40;5.20;;;24.30;44.50;;;;;;5086815;28;20519;-70
2023/06/17 09:23:53;;;;;;;9.07;5.40;;;24.40;43.40;;;;;;5069799;28;20448;-69
2023/06/17 09:26:25;;;;;;;7.00;5.60;;;24.40;43.50;;;;;;5080701;28;20456;-73
2023/06/17 09:28:52;;;;;;;9.53;5.13;;;24.40;43.20;;;;;;5079181;28;20462;-72
2023/06/17 09:31:19;;;;;;;5.80;4.57;;;24.40;43.00;;;;;;5089643;28;20488;-70
2023/06/17 09:33:46;;;;;;;5.73;4.73;;;24.30;43.60;;;;;;5072482;28;20484;-71
2023/06/17 09:36:14;;;;;;;7.27;4.97;;;24.50;44.80;;;;;;5085155;28;20440;-70
2023/06/17 09:38:42;;;;;;;8.17;5.90;;;24.60;45.00;;;;;;5083713;28;20494;-71
2023/06/17 09:41:14;;;;;;;6.43;5.10;;;24.70;44.90;;;;;;5092892;28;20561;-73
2023/06/17 09:43:42;;;;;;;5.60;4.43;;;24.80;44.70;;;;;;5082871;28;20452;-71
2023/06/17 09:46:13;;;;;;;12.17;4.80;;;24.90;44.40;;;;;;5084602;28;20478;-74
2023/06/17 09:48:41;;;;;;;6.10;5.10;;;25.00;43.10;;;;;;5074334;28;20593;-72
2023/06/17 09:51:12;;;;;;;9.37;4.80;;;25.10;42.00;;;;;;5082822;28;20708;-71
2023/06/17 09:53:42;;;;;;;6.73;5.03;;;25.20;39.40;;;;;;5078153;28;20743;-69
2023/06/17 09:56:12;;;;;;;7.97;4.97;;;25.30;38.50;;;;;;5093101;28;21295;-69
2023/06/17 09:58:39;;;;;;;8.10;5.50;;;25.50;39.20;;;;;;5082618;28;20482;-70
2023/06/17 10:01:07;;;;;;;6.77;5.57;;;25.60;40.30;;;;;;5094379;28;20523;-70
2023/06/17 10:03:35;;;;;;;6.50;4.47;;;25.70;39.50;;;;;;5081813;28;20468;-70
2023/06/17 10:06:04;;;;;;;7.23;4.60;;;25.70;38.00;;;;;;5095238;28;20863;-70
2023/06/17 10:08:32;;;;;;;5.33;4.57;;;25.80;38.80;;;;;;5084575;28;20462;-69
2023/06/17 10:11:00;;;;;;;7.50;4.43;;;25.80;38.70;;;;;;5098762;28;20440;-69
2023/06/17 10:13:32;;;;;;;7.40;5.10;;;25.90;39.20;;;;;;5083006;28;20467;-71
2023/06/17 10:16:01;;;;;;;6.03;4.40;;;26.10;38.80;;;;;;5098488;28;20443;-68
2023/06/17 10:18:38;;;;;;;7.47;5.10;;;26.20;38.40;;;;;;5083700;28;21076;-69
2023/06/17 10:21:08;;;;;;;7.57;5.10;;;26.20;37.30;;;;;;5097911;28;20515;-72
2023/06/17 10:23:37;;;;;;;14.43;4.70;;;26.20;36.40;;;;;;5073923;28;20497;-69
2023/06/17 10:26:06;;;;;;;7.33;5.70;;;26.30;36.00;;;;;;5086484;28;20449;-74
2023/06/17 10:28:59;;;;;;;7.73;4.83;;;26.40;34.60;;;;;;5078295;28;20449;-69
2023/06/17 10:31:27;;;;;;;8.17;4.63;;;26.40;36.30;;;;;;5082915;28;21034;-69
2023/06/17 10:33:55;;;;;;;7.00;5.30;;;26.20;35.90;;;;;;5077523;28;20878;-70
2023/06/17 10:36:22;;;;;;;5.90;4.90;;;26.10;33.80;;;;;;5087529;28;20436;-68
2023/06/17 10:38:56;;;;;;;8.67;4.43;;;26.00;34.10;;;;;;5079285;28;20464;-69
2023/06/17 10:41:46;;;;;;;6.23;4.50;;;25.90;35.30;;;;;;5087025;28;20832;-71
2023/06/17 10:44:43;;;;;;;8.50;5.20;;;25.80;34.70;;;;;;5084180;28;20451;-69
2023/06/17 10:47:19;;;;;;;7.03;5.00;;;25.80;34.70;;;;;;5086867;28;20805;-69
2023/06/17 10:49:49;;;;;;;8.20;4.60;;;25.80;36.00;;;;;;5089787;28;20946;-70
2023/06/17 10:52:17;;;;;;;6.97;5.20;;;25.90;37.10;;;;;;5086192;28;20467;-68
2023/06/17 10:54:46;;;;;;;6.83;4.50;;;26.10;37.30;;;;;;5090833;28;20470;-69
2023/06/17 10:57:13;;;;;;;5.37;4.63;;;26.20;37.40;;;;;;5086159;28;21371;-70
2023/06/17 10:59:42;;;;;;;8.20;5.73;;;26.30;36.60;;;;;;5081324;28;21078;-70
2023/06/17 11:02:09;;;;;;;7.53;4.90;;;26.40;31.60;;;;;;5080870;28;20521;-68
2023/06/17 11:04:37;;;;;;;9.87;5.50;;;26.40;31.20;;;;;;5077301;28;20449;-69
2023/06/17 11:07:10;;;;;;;8.27;5.57;;;26.40;30.30;;;;;;5086363;28;20450;-68
2023/06/17 11:09:37;;;;;;;5.80;4.87;;;26.40;30.10;;;;;;5081961;28;20459;-69
2023/06/17 11:12:07;;;;;;;6.53;5.00;;;26.40;33.00;;;;;;5088939;28;20530;-71
2023/06/17 11:14:37;;;;;;;7.40;5.77;;;26.50;34.40;;;;;;5077096;28;20454;-70
2023/06/17 11:17:08;;;;;;;5.93;4.40;;;26.60;33.00;;;;;;5082396;28;20591;-68
2023/06/17 11:19:38;;;;;;;9.10;5.50;;;26.70;34.70;;;;;;5073308;28;20497;-70
2023/06/17 11:22:07;;;;;;;8.90;5.47;;;26.70;33.70;;;;;;5084955;28;20499;-69
2023/06/17 11:24:35;;;;;;;10.27;5.47;;;26.80;34.30;;;;;;5085615;28;20496;-69
2023/06/17 11:27:06;;;;;;;6.63;4.23;;;26.90;34.00;;;;;;5091839;28;20529;-69
2023/06/17 11:29:33;;;;;;;9.93;6.40;;;27.00;34.10;;;;;;5087797;28;20575;-70
2023/06/17 11:32:01;;;;;;;8.03;5.57;;;27.00;33.90;;;;;;5092509;28;20991;-70
2023/06/17 11:34:31;;;;;;;6.73;5.13;;;27.10;34.20;;;;;;5072088;28;20465;-70
2023/06/17 11:37:00;;;;;;;7.60;5.43;;;27.20;31.00;;;;;;5085537;28;20446;-71
2023/06/17 11:39:30;;;;;;;7.10;4.70;;;27.20;28.90;;;;;;5086981;28;20494;-70
2023/06/17 11:42:01;;;;;;;8.20;6.73;;;27.10;30.70;;;;;;5092573;28;21029;-70
2023/06/17 11:44:29;;;;;;;7.83;5.07;;;27.00;31.50;;;;;;5075687;28;20485;-70
2023/06/17 11:46:56;;;;;;;7.40;4.60;;;27.00;31.90;;;;;;5087244;28;20457;-70
2023/06/17 11:49:27;;;;;;;8.03;5.80;;;27.00;32.20;;;;;;5078149;28;20465;-70
2023/06/17 11:52:00;;;;;;;6.47;5.43;;;26.90;31.80;;;;;;5083872;28;20892;-68
2023/06/17 11:54:28;;;;;;;8.93;6.33;;;26.90;31.40;;;;;;5077011;28;20511;-70
2023/06/17 11:56:55;;;;;;;9.43;5.50;;;26.90;31.10;;;;;;5086742;28;20453;-71
2023/06/17 11:59:25;;;;;;;8.17;5.90;;;26.90;31.30;;;;;;5079313;28;21007;-69
2023/06/17 12:01:55;;;;;;;7.97;4.97;;;26.90;31.30;;;;;;5092108;28;20526;-69
2023/06/17 12:04:22;;;;;;;6.77;5.10;;;26.90;31.90;;;;;;5077730;28;20564;-69
2023/06/17 12:06:49;;;;;;;9.20;5.77;;;27.00;32.60;;;;;;5086762;28;20445;-69
2023/06/17 12:09:18;;;;;;;7.43;5.60;;;27.10;32.60;;;;;;5076367;28;20574;-68
2023/06/17 12:11:44;;;;;;;7.87;5.37;;;27.10;31.60;;;;;;5084142;28;20433;-73
2023/06/17 12:14:13;;;;;;;10.60;5.97;;;27.10;31.90;;;;;;5082318;28;20836;-68
2023/06/17 12:16:43;;;;;;;8.90;4.93;;;27.20;32.10;;;;;;5085775;28;20479;-68
2023/06/17 12:19:20;;;;;;;9.20;5.33;;;27.20;31.10;;;;;;5076776;28;20531;-69
2023/06/17 12:21:47;;;;;;;6.83;4.60;;;27.20;29.90;;;;;;5086181;28;20835;-68
2023/06/17 12:24:17;;;;;;;7.93;5.60;;;27.30;31.40;;;;;;5073175;28;20458;-69
2023/06/17 12:26:45;;;;;;;8.50;5.17;;;27.30;31.50;;;;;;5086081;28;20446;-68
2023/06/17 12:29:13;;;;;;;8.83;5.83;;;27.50;30.80;;;;;;5081257;28;20914;-70
2023/06/17 12:31:44;;;;;;;7.67;4.90;;;27.60;30.70;;;;;;5082325;28;20453;-71
2023/06/17 12:34:11;;;;;;;6.93;5.70;;;27.60;31.40;;;;;;5074907;28;20994;-70
2023/06/17 12:36:38;;;;;;;10.43;5.87;;;27.70;30.20;;;;;;5083910;28;20478;-71
2023/06/17 12:39:07;;;;;;;11.63;6.43;;;27.60;30.70;;;;;;5073792;28;20610;-70
2023/06/17 12:41:36;;;;;;;12.27;6.07;;;27.60;30.70;;;;;;5085102;28;20436;-69
2023/06/17 12:44:03;;;;;;;8.07;5.17;;;27.60;29.90;;;;;;5073526;28;21148;-68
2023/06/17 12:46:30;;;;;;;11.53;5.33;;;27.50;30.20;;;;;;5083167;28;20873;-72
2023/06/17 12:48:57;;;;;;;9.90;6.00;;;27.50;30.00;;;;;;5074600;28;20500;-70
2023/06/17 12:51:25;;;;;;;9.57;6.07;;;27.60;29.90;;;;;;5092520;28;20543;-71
2023/06/17 12:53:54;;;;;;;8.60;5.30;;;27.60;29.90;;;;;;5080934;28;20492;-69
2023/06/17 12:56:21;;;;;;;7.63;5.87;;;27.70;29.40;;;;;;5069848;28;20860;-69
2023/06/17 12:58:50;;;;;;;10.90;5.67;;;27.80;29.30;;;;;;5086269;28;20485;-70
2023/06/17 13:01:17;;;;;;;5.80;5.00;;;27.90;29.40;;;;;;5080370;28;20933;-69
2023/06/17 13:03:45;;;;;;;10.70;5.23;;;28.00;28.20;;;;;;5086783;28;20486;-68
2023/06/17 13:06:12;;;;;;;9.13;5.57;;;28.00;29.20;;;;;;5075052;28;20900;-70
2023/06/17 13:08:43;;;;;;;8.40;5.70;;;28.00;28.50;;;;;;5087568;28;20523;-70
2023/06/17 13:11:11;;;;;;;9.87;5.70;;;28.00;28.80;;;;;;5083795;28;20473;-72
2023/06/17 13:13:43;;;;;;;8.40;6.17;;;27.90;29.00;;;;;;5085608;28;20923;-70
2023/06/17 13:16:12;;;;;;;9.00;6.67;;;27.90;29.10;;;;;;5074821;28;20688;-70
2023/06/17 13:18:41;;;;;;;6.00;4.37;;;27.80;28.20;;;;;;5086791;28;20439;-69
2023/06/17 13:21:08;;;;;;;9.20;6.90;;;27.70;28.60;;;;;;5070831;28;22178;-70
2023/06/17 13:23:36;;;;;;;7.10;6.07;;;27.60;28.40;;;;;;5080703;28;20532;-70
2023/06/17 13:26:04;;;;;;;7.90;5.60;;;27.70;28.90;;;;;;5082279;28;20469;-70
2023/06/17 13:28:33;;;;;;;6.63;5.40;;;27.70;29.50;;;;;;5085933;28;20500;-69
2023/06/17 13:31:02;;;;;;;8.53;5.30;;;27.90;27.30;;;;;;5084613;28;20453;-69
2023/06/17 13:33:31;;;;;;;11.47;5.63;;;27.90;27.70;;;;;;5081612;28;20519;-70
2023/06/17 13:35:58;;;;;;;7.07;5.10;;;27.90;28.30;;;;;;5075151;28;20550;-74
2023/06/17 13:38:25;;;;;;;6.80;5.60;;;27.90;28.40;;;;;;5081466;28;20528;-71
2023/06/17 13:40:52;;;;;;;7.03;5.67;;;27.90;27.80;;;;;;5077907;28;20464;-70
2023/06/17 13:43:19;;;;;;;8.60;5.83;;;27.90;27.90;;;;;;5089425;28;20487;-70
2023/06/17 13:45:46;;;;;;;10.20;5.47;;;27.90;28.20;;;;;;5087702;28;20485;-69
2023/06/17 13:48:13;;;;;;;11.43;6.20;;;27.80;28.20;;;;;;5086502;28;20453;-70
2023/06/17 13:50:42;;;;;;;9.33;6.23;;;27.80;28.10;;;;;;5078600;28;20508;-70
2023/06/17 13:53:10;;;;;;;8.87;5.43;;;27.70;28.10;;;;;;5093744;28;20440;-70
2023/06/17 13:55:41;;;;;;;8.87;6.60;;;27.70;28.20;;;;;;5080835;28;20454;-71
2023/06/17 13:58:08;;;;;;;7.33;5.63;;;27.70;28.50;;;;;;5091681;28;20850;-69
2023/06/17 14:00:38;;;;;;;7.10;5.33;;;27.70;28.40;;;;;;5074660;28;21116;-68
2023/06/17 14:03:10;;;;;;;11.10;5.93;;;27.70;28.50;;;;;;5085816;28;20482;-70
2023/06/17 14:05:37;;;;;;;8.07;6.20;;;27.70;28.30;;;;;;5085048;28;20901;-69
2023/06/17 14:08:06;;;;;;;9.60;5.93;;;27.70;27.70;;;;;;5096767;28;20447;-69
2023/06/17 14:10:33;;;;;;;7.83;5.50;;;27.70;26.70;;;;;;5079158;28;20462;-70
2023/06/17 14:13:00;;;;;;;6.27;5.13;;;27.70;27.10;;;;;;5089565;28;20519;-70
2023/06/17 14:15:27;;;;;;;7.37;5.27;;;27.70;28.00;;;;;;5078985;28;20485;-71
2023/06/17 14:17:54;;;;;;;8.43;5.43;;;27.70;26.90;;;;;;5086690;28;20486;-69
2023/06/17 14:20:22;;;;;;;8.40;5.50;;;27.70;27.60;;;;;;5078692;28;20841;-69
2023/06/17 14:22:55;;;;;;;7.90;5.80;;;27.50;27.10;;;;;;5084718;28;20489;-68
2023/06/17 14:25:24;;;;;;;6.37;5.17;;;27.50;26.50;;;;;;5078639;28;20520;-70
2023/06/17 14:27:52;;;;;;;7.07;5.60;;;27.40;27.40;;;;;;5087777;28;20476;-69
2023/06/17 14:30:19;;;;;;;7.93;6.10;;;27.30;27.30;;;;;;5082271;28;20536;-70
2023/06/17 14:32:48;;;;;;;6.70;5.10;;;27.30;26.80;;;;;;5085575;28;20478;-69
2023/06/17 14:35:17;;;;;;;10.03;6.20;;;27.20;27.20;;;;;;5078075;28;20496;-69
2023/06/17 14:37:48;;;;;;;21.70;8.30;;;27.20;27.50;;;;;;5084609;28;20521;-70
2023/06/17 14:40:15;;;;;;;9.90;5.60;;;27.30;28.40;;;;;;5077435;28;21198;-69
2023/06/17 14:42:44;;;;;;;6.87;5.00;;;27.30;28.40;;;;;;5083387;28;20523;-69
2023/06/17 14:45:13;;;;;;;9.43;6.23;;;27.40;28.10;;;;;;5078303;28;20922;-69
2023/06/17 14:47:40;;;;;;;7.87;6.13;;;27.40;27.70;;;;;;5085011;28;20457;-69
2023/06/17 14:50:10;;;;;;;7.90;5.97;;;27.40;27.60;;;;;;5081530;28;21005;-70
2023/06/17 14:52:38;;;;;;;8.53;6.10;;;27.40;27.00;;;;;;5100214;28;20432;-69
2023/06/17 14:55:06;;;;;;;6.97;5.30;;;27.40;26.60;;;;;;5069407;28;20534;-70
2023/06/17 14:57:35;;;;;;;9.37;6.80;;;27.30;26.80;;;;;;5084246;28;20470;-68
2023/06/17 15:00:04;;;;;;;9.73;6.50;;;27.30;26.60;;;;;;5074031;28;20939;-70
2023/06/17 15:02:47;;;;;;;7.20;5.40;;;27.20;26.00;;;;;;5101348;28;20808;-71
2023/06/17 15:05:14;;;;;;;7.10;6.10;;;27.20;26.60;;;;;;5076958;28;20439;-69
2023/06/17 15:07:41;;;;;;;7.67;6.47;;;27.20;27.00;;;;;;5099197;28;20453;-73
2023/06/17 15:10:09;;;;;;;7.70;5.17;;;27.10;27.00;;;;;;5074650;28;20502;-69
2023/06/17 15:12:38;;;;;;;8.07;6.40;;;27.10;27.10;;;;;;5086805;28;20536;-70
2023/06/17 15:15:08;;;;;;;7.97;5.47;;;27.10;27.40;;;;;;5079703;28;20947;-68
2023/06/17 15:17:40;;;;;;;7.03;5.30;;;27.10;27.20;;;;;;5101909;28;20515;-70
2023/06/17 15:20:09;;;;;;;7.83;5.57;;;27.10;26.80;;;;;;5080610;28;21520;-69
2023/06/17 15:22:38;;;;;;;8.07;5.73;;;27.00;26.90;;;;;;5090561;28;20477;-71
2023/06/17 15:25:10;;;;;;;11.00;6.33;;;27.00;26.70;;;;;;5077859;28;21000;-70
2023/06/17 15:27:39;;;;;;;6.90;5.07;;;26.90;26.90;;;;;;5096140;28;20546;-70
2023/06/17 15:30:09;;;;;;;6.53;4.97;;;26.90;27.40;;;;;;5066913;28;20824;-71
2023/06/17 15:32:36;;;;;;;7.40;5.70;;;26.80;26.80;;;;;;5095333;28;20455;-68
2023/06/17 15:35:05;;;;;;;7.73;5.80;;;26.80;26.60;;;;;;5088576;28;20446;-69
2023/06/17 15:37:32;;;;;;;7.80;5.50;;;26.70;26.00;;;;;;5072475;28;20484;-69
2023/06/17 15:39:59;;;;;;;7.57;5.53;;;26.60;25.60;;;;;;5088278;28;20474;-69
2023/06/17 15:42:26;;;;;;;9.97;6.53;;;26.50;26.20;;;;;;5085108;28;20550;-69
2023/06/17 15:44:54;;;;;;;7.30;6.50;;;26.40;26.40;;;;;;5084893;28;20450;-70
2023/06/17 15:47:22;;;;;;;6.80;5.00;;;26.30;26.50;;;;;;5074152;28;20507;-69
2023/06/17 15:49:53;;;;;;;9.80;5.50;;;26.30;27.20;;;;;;5078495;28;20486;-70
2023/06/17 15:52:23;;;;;;;9.63;6.70;;;26.20;27.60;;;;;;5088489;28;20487;-71
2023/06/17 15:54:53;;;;;;;7.47;5.90;;;26.20;27.90;;;;;;5082616;28;20452;-70
2023/06/17 15:57:20;;;;;;;8.97;6.53;;;26.10;27.50;;;;;;5089114;28;20494;-68
2023/06/17 15:59:47;;;;;;;10.40;6.33;;;26.10;27.50;;;;;;5083531;28;21131;-69
2023/06/17 16:02:14;;;;;;;8.33;5.30;;;26.00;27.70;;;;;;5079865;28;20559;-70
2023/06/17 16:04:44;;;;;;;6.60;5.60;;;26.10;28.00;;;;;;5086615;28;20476;-72
2023/06/17 16:07:12;;;;;;;6.90;5.77;;;26.00;28.00;;;;;;5088868;28;20536;-69
2023/06/17 16:09:42;;;;;;;7.10;5.53;;;26.00;27.80;;;;;;5084245;28;20955;-69
2023/06/17 16:12:13;;;;;;;7.97;5.53;;;26.10;27.70;;;;;;5086610;28;20553;-69
2023/06/17 16:14:45;;;;;;;7.83;5.53;;;26.00;27.40;;;;;;5082660;28;20446;-70
2023/06/17 16:17:13;;;;;;;7.27;5.87;;;26.00;27.40;;;;;;5073596;28;20522;-69
2023/06/17 16:19:40;;;;;;;8.67;6.40;;;26.00;28.10;;;;;;5079187;28;21204;-68
2023/06/17 16:22:11;;;;;;;7.23;5.50;;;25.90;27.70;;;;;;5073433;28;20469;-69
2023/06/17 16:24:39;;;;;;;9.13;5.70;;;25.90;28.10;;;;;;5079012;28;20493;-71
2023/06/17 16:27:06;;;;;;;9.13;5.20;;;25.90;28.30;;;;;;5081979;28;20453;-70
2023/06/17 16:29:39;;;;;;;14.20;6.03;;;25.90;28.50;;;;;;5087087;28;20808;-68
2023/06/17 16:32:11;;;;;;;10.43;6.10;;;25.80;28.60;;;;;;5075239;28;21003;-69
2023/06/17 16:34:38;;;;;;;7.60;5.10;;;25.80;28.70;;;;;;5085042;28;20446;-69
2023/06/17 16:37:06;;;;;;;8.57;6.60;;;25.80;28.80;;;;;;5084637;28;20965;-70
2023/06/17 16:39:35;;;;;;;8.03;5.10;;;25.70;28.50;;;;;;5080473;28;20445;-70
2023/06/17 16:42:06;;;;;;;7.97;5.47;;;25.70;28.70;;;;;;5082641;28;21007;-70
2023/06/17 16:44:36;;;;;;;9.50;6.20;;;25.70;29.00;;;;;;5083836;28;21031;-70
2023/06/17 16:47:03;;;;;;;7.43;5.63;;;25.70;29.10;;;;;;5081215;27;20464;-70
2023/06/17 16:49:32;;;;;;;8.77;6.43;;;25.60;29.00;;;;;;5080606;28;20448;-70
2023/06/17 16:51:59;;;;;;;5.60;4.87;;;25.60;29.20;;;;;;5075257;28;20576;-71
2023/06/17 16:54:26;;;;;;;7.37;5.07;;;25.60;29.00;;;;;;5087222;28;20509;-72
2023/06/17 16:56:54;;;;;;;8.40;5.67;;;25.50;28.80;;;;;;5074812;28;20506;-70
2023/06/17 16:59:24;;;;;;;7.73;5.47;;;25.50;29.40;;;;;;5085707;28;20440;-69
2023/06/17 17:01:51;;;;;;;8.27;5.57;;;25.40;29.30;;;;;;5080938;28;20484;-70
2023/06/17 17:04:18;;;;;;;8.27;6.20;;;25.40;29.30;;;;;;5089569;28;20587;-69
2023/06/17 17:06:45;;;;;;;7.40;5.07;;;25.40;29.20;;;;;;5085047;28;20989;-70
2023/06/17 17:09:12;;;;;;;7.40;6.47;;;25.30;29.20;;;;;;5090189;28;20445;-69
2023/06/17 17:11:39;;;;;;;8.30;5.80;;;25.30;29.40;;;;;;5074281;28;20466;-69
2023/06/17 17:14:08;;;;;;;7.73;5.43;;;25.30;28.90;;;;;;5086854;28;20438;-69
2023/06/17 17:16:35;;;;;;;8.30;5.37;;;25.20;28.70;;;;;;5072713;28;21037;-70
2023/06/17 17:19:04;;;;;;;8.30;6.00;;;25.20;28.90;;;;;;5079551;28;20436;-70
2023/06/17 17:21:31;;;;;;;10.33;5.97;;;25.20;29.00;;;;;;5079211;28;20475;-70
2023/06/17 17:23:58;;;;;;;8.03;5.83;;;25.10;29.40;;;;;;5084717;28;21253;-69
2023/06/17 17:26:27;;;;;;;7.33;5.30;;;25.10;29.80;;;;;;5080910;28;20504;-69
2023/06/17 17:28:55;;;;;;;11.10;6.40;;;25.00;30.00;;;;;;5094325;28;20444;-70
2023/06/17 17:31:23;;;;;;;8.03;6.67;;;25.00;30.10;;;;;;5079046;28;20458;-70
2023/06/17 17:33:50;;;;;;;9.03;6.20;;;24.90;30.30;;;;;;5084495;28;20540;-72
2023/06/17 17:36:18;;;;;;;7.70;6.10;;;24.90;31.00;;;;;;5080350;28;20843;-69
2023/06/17 17:38:47;;;;;;;6.50;5.53;;;24.80;31.30;;;;;;5086701;28;20551;-70
2023/06/17 17:41:17;;;;;;;9.57;6.27;;;24.80;31.80;;;;;;5078816;28;20463;-69
2023/06/17 17:43:53;;;;;;;8.60;5.93;;;24.80;31.80;;;;;;5090140;28;20991;-69
2023/06/17 17:46:20;;;;;;;7.93;5.73;;;24.80;32.00;;;;;;5073866;28;20505;-68
2023/06/17 17:48:48;;;;;;;7.30;5.77;;;24.70;32.10;;;;;;5084204;28;20458;-69
2023/06/17 17:51:16;;;;;;;6.47;4.97;;;24.70;32.00;;;;;;5074891;28;20455;-69
2023/06/17 17:53:43;;;;;;;10.20;6.47;;;24.70;32.50;;;;;;5084000;28;20529;-68
2023/06/17 17:56:10;;;;;;;7.80;6.20;;;24.60;31.80;;;;;;5085528;28;20444;-68
2023/06/17 17:58:37;;;;;;;10.77;5.87;;;24.60;32.10;;;;;;5056352;28;20460;-70
2023/06/17 18:01:04;;;;;;;8.90;5.37;;;24.50;32.10;;;;;;5057133;28;20445;-69
2023/06/17 18:03:37;;;;;;;11.27;5.80;;;24.50;32.40;;;;;;5083154;28;20466;-70
2023/06/17 18:06:06;;;;;;;12.63;5.90;;;24.50;32.40;;;;;;5075359;28;21053;-70
2023/06/17 18:08:34;;;;;;;10.50;5.43;;;24.40;32.60;;;;;;5093692;28;20538;-69
2023/06/17 18:11:09;;;;;;;7.20;5.70;;;24.40;32.70;;;;;;5080943;28;20543;-68
2023/06/17 18:13:40;;;;;;;10.47;6.77;;;24.30;32.40;;;;;;5080198;28;20458;-71